Time;durP1;ratioP1;P1;durP2;ratioP2;P2;SDS_P1;SDS_P2;PMS_P1;PMS_P2;Temp;Humidity;BMP_temperature;BMP_pressure;BME280_temperature;BME280_humidity;BME280_pressure;Samples;Min_cycle;Max_cycle;Signal;HPM_P1;HPM_P2
2022/01/08 00:02:15;;;;;;;;;;;5.10;93.40;;;;;;4993402;28;19914;-90
2022/01/08 00:04:42;;;;;;;;;;;5.00;93.30;;;;;;4986140;28;19921;-91
2022/01/08 00:07:09;;;;;;;;;;;5.00;93.30;;;;;;4981250;28;20193;-90
2022/01/08 00:09:36;;;;;;;;;;;5.00;93.30;;;;;;4976237;28;19924;-90
2022/01/08 00:12:03;;;;;;;;;;;5.00;93.30;;;;;;4965258;28;20469;-88
2022/01/08 00:14:30;;;;;;;;;;;4.90;93.30;;;;;;4981208;28;19944;-88
2022/01/08 00:16:58;;;;;;;;;;;4.90;93.30;;;;;;4966333;28;19980;-88
2022/01/08 00:19:25;;;;;;;;;;;4.90;93.30;;;;;;4997796;28;19916;-87
2022/01/08 00:21:51;;;;;;;;;;;4.90;93.30;;;;;;4982455;28;20127;-87
2022/01/08 00:24:18;;;;;;;;;;;4.90;93.30;;;;;;4991574;28;19917;-87
2022/01/08 00:26:45;;;;;;;;;;;4.80;93.30;;;;;;4989774;28;19918;-88
2022/01/08 00:29:12;;;;;;;;;;;4.80;93.40;;;;;;4983778;28;19914;-88
2022/01/08 00:31:40;;;;;;;;;;;4.90;93.50;;;;;;4987237;28;20379;-87
2022/01/08 00:34:06;;;;;;;;;;;4.90;93.60;;;;;;4982002;28;19921;-88
2022/01/08 00:36:33;;;;;;;;;;;4.90;93.70;;;;;;4982537;28;20390;-89
2022/01/08 00:39:00;;;;;;;;;;;4.90;93.80;;;;;;5001351;28;19914;-87
2022/01/08 00:41:27;;;;;;;;;;;4.90;93.80;;;;;;4986323;28;19914;-87
2022/01/08 00:43:54;;;;;;;;;;;5.00;93.90;;;;;;4984059;28;19913;-87
2022/01/08 00:46:21;;;;;;;;;;;5.00;93.90;;;;;;4987498;28;19944;-88
2022/01/08 00:48:47;;;;;;;;;;;5.00;93.90;;;;;;5008459;28;19913;-87
2022/01/08 00:51:14;;;;;;;;;;;5.00;93.80;;;;;;5003129;28;19924;-86
2022/01/08 00:53:41;;;;;;;;;;;5.00;93.80;;;;;;4978549;28;19941;-87
2022/01/08 00:56:08;;;;;;;;;;;5.00;93.80;;;;;;4997018;28;19924;-87
2022/01/08 00:58:35;;;;;;;;;;;5.00;93.70;;;;;;4985439;28;19914;-87
2022/01/08 01:01:02;;;;;;;;;;;5.00;93.70;;;;;;4994845;28;19924;-87
2022/01/08 01:03:29;;;;;;;;;;;5.00;93.70;;;;;;4990699;28;19943;-87
2022/01/08 01:05:56;;;;;;;;;;;4.90;93.70;;;;;;4985666;28;20129;-88
2022/01/08 01:08:22;;;;;;;;;;;4.90;93.60;;;;;;4998783;28;19936;-87
2022/01/08 01:10:49;;;;;;;;;;;4.90;94.00;;;;;;4989338;28;20095;-88
2022/01/08 01:13:16;;;;;;;;;;;4.90;93.60;;;;;;4999936;28;19928;-88
2022/01/08 01:15:43;;;;;;;;;;;4.90;93.60;;;;;;4991867;28;20182;-88
2022/01/08 01:18:10;;;;;;;;;;;4.90;93.60;;;;;;4975555;28;20440;-88
2022/01/08 01:20:37;;;;;;;;;;;4.80;93.60;;;;;;4987891;28;19920;-87
2022/01/08 01:23:14;;;;;;;;;;;4.80;93.60;;;;;;4994160;28;19920;-87
2022/01/08 01:25:47;;;;;;;;;;;4.80;93.60;;;;;;4987894;28;19932;-87
2022/01/08 01:47:02;;;;;;;;;;;4.70;93.60;;;;;;4968713;28;20409;-87
2022/01/08 01:49:37;;;;;;;;;;;4.60;93.60;;;;;;4996097;28;19914;-87
2022/01/08 01:52:05;;;;;;;;;;;4.60;93.60;;;;;;4999484;28;19914;-87
2022/01/08 01:54:32;;;;;;;;;;;4.60;93.60;;;;;;4987132;28;20198;-87
2022/01/08 01:57:00;;;;;;;;;;;4.60;93.60;;;;;;4999471;28;20053;-87
2022/01/08 01:59:28;;;;;;;;;;;4.60;93.60;;;;;;4987584;28;20282;-87
2022/01/08 02:01:55;;;;;;;;;;;4.60;93.70;;;;;;4980765;28;19919;-85
2022/01/08 02:04:22;;;;;;;;;;;4.60;93.70;;;;;;4992629;28;19914;-87
2022/01/08 02:06:49;;;;;;;;;;;4.60;93.70;;;;;;4989111;28;20299;-86
2022/01/08 02:09:16;;;;;;;;;;;4.60;93.70;;;;;;4988138;28;19914;-86
2022/01/08 02:11:56;;;;;;;;;;;4.60;93.70;;;;;;4988392;28;19931;-86
2022/01/08 02:14:23;;;;;;;;;;;4.50;93.70;;;;;;5013501;28;20276;-86
2022/01/08 02:16:50;;;;;;;;;;;4.50;93.70;;;;;;4976355;28;20007;-86
2022/01/08 02:19:17;;;;;;;;;;;4.50;93.60;;;;;;4992042;28;19922;-86
2022/01/08 02:21:51;;;;;;;;;;;4.50;93.60;;;;;;4992193;28;20404;-86
2022/01/08 02:24:18;;;;;;;;;;;4.50;93.60;;;;;;4983248;28;20024;-85
2022/01/08 02:26:45;;;;;;;;;;;4.40;93.60;;;;;;4990907;28;20877;-86
2022/01/08 02:29:15;;;;;;;;;;;4.40;93.60;;;;;;4997213;28;19929;-86
2022/01/08 02:32:15;;;;;;;;;;;4.40;93.60;;;;;;4968911;28;19921;-86
2022/01/08 02:34:44;;;;;;;;;;;4.40;93.60;;;;;;4957235;28;20208;-86
2022/01/08 02:37:11;;;;;;;;;;;4.40;93.60;;;;;;4987826;28;19940;-86
2022/01/08 02:39:40;;;;;;;;;;;4.30;93.60;;;;;;4981884;28;19914;-86
2022/01/08 02:42:08;;;;;;;;;;;4.40;93.60;;;;;;4978787;28;20389;-86
2022/01/08 02:44:35;;;;;;;;;;;4.30;93.50;;;;;;4991950;28;19914;-86
2022/01/08 02:47:02;;;;;;;;;;;4.30;93.60;;;;;;4993353;28;19928;-86
2022/01/08 02:49:32;;;;;;;;;;;4.30;93.60;;;;;;5001454;28;20289;-86
2022/01/08 02:51:58;;;;;;;;;;;4.30;93.60;;;;;;4991887;28;20390;-86
2022/01/08 02:54:25;;;;;;;;;;;4.30;93.60;;;;;;4989724;28;19913;-86
2022/01/08 02:56:52;;;;;;;;;;;4.30;93.70;;;;;;4980106;28;19940;-86
2022/01/08 02:59:19;;;;;;;;;;;4.30;93.70;;;;;;4997202;28;19913;-85
2022/01/08 03:01:46;;;;;;;;;;;4.30;93.70;;;;;;4987071;28;19920;-86
2022/01/08 03:04:13;;;;;;;;;;;4.30;93.70;;;;;;4986277;28;19918;-86
2022/01/08 03:06:40;;;;;;;;;;;4.20;93.70;;;;;;4987086;28;19921;-85
2022/01/08 03:09:08;;;;;;;;;;;4.20;93.70;;;;;;4991112;28;20214;-86
2022/01/08 03:11:35;;;;;;;;;;;4.20;93.70;;;;;;4989229;28;19914;-86
2022/01/08 03:14:01;;;;;;;;;;;4.20;93.70;;;;;;4993440;28;20402;-85
2022/01/08 03:16:28;;;;;;;;;;;4.20;93.70;;;;;;5009070;28;19914;-86
2022/01/08 03:18:55;;;;;;;;;;;4.20;93.70;;;;;;4976356;28;20666;-85
2022/01/08 03:21:22;;;;;;;;;;;4.20;93.80;;;;;;4989986;28;20433;-86
2022/01/08 03:23:57;;;;;;;;;;;4.20;93.70;;;;;;4988005;28;19914;-86
2022/01/08 03:26:26;;;;;;;;;;;4.20;93.70;;;;;;4999871;28;20263;-86
2022/01/08 03:28:53;;;;;;;;;;;4.20;93.70;;;;;;5001329;28;20011;-86
2022/01/08 03:31:21;;;;;;;;;;;4.10;93.70;;;;;;4995632;28;19919;-85
2022/01/08 03:33:49;;;;;;;;;;;4.10;93.70;;;;;;4983447;28;19924;-86
2022/01/08 03:36:16;;;;;;;;;;;4.10;93.70;;;;;;4994054;28;19948;-86
2022/01/08 03:38:43;;;;;;;;;;;4.10;93.70;;;;;;4984289;28;20186;-86
2022/01/08 03:41:10;;;;;;;;;;;4.10;93.80;;;;;;4992463;28;20289;-85
2022/01/08 03:43:37;;;;;;;;;;;4.10;93.80;;;;;;4986451;28;19919;-86
2022/01/08 03:46:04;;;;;;;;;;;4.10;93.80;;;;;;4996357;28;19926;-85
2022/01/08 03:48:44;;;;;;;;;;;4.10;93.80;;;;;;4979473;28;19922;-86
2022/01/08 03:51:12;;;;;;;;;;;4.10;93.80;;;;;;4995347;28;19913;-86
2022/01/08 03:53:39;;;;;;;;;;;4.10;93.80;;;;;;4987035;28;19917;-86
2022/01/08 03:56:06;;;;;;;;;;;4.00;93.80;;;;;;4994413;28;19928;-85
2022/01/08 03:58:33;;;;;;;;;;;4.10;94.10;;;;;;4981009;28;19913;-85
2022/01/08 04:01:01;;;;;;;;;;;4.00;93.70;;;;;;4999234;28;19924;-86
2022/01/08 04:03:27;;;;;;;;;;;4.00;93.70;;;;;;4996085;28;19943;-86
2022/01/08 04:05:54;;;;;;;;;;;4.00;93.70;;;;;;4994557;28;19921;-85
2022/01/08 04:08:21;;;;;;;;;;;4.00;93.70;;;;;;4996060;28;19920;-85
2022/01/08 04:10:48;;;;;;;;;;;4.00;93.70;;;;;;4982504;28;19913;-86
2022/01/08 04:13:20;;;;;;;;;;;4.00;93.70;;;;;;4993424;28;19917;-86
2022/01/08 04:15:50;;;;;;;;;;;3.90;93.70;;;;;;4990584;28;19943;-85
2022/01/08 04:18:17;;;;;;;;;;;3.90;93.70;;;;;;4999785;28;19916;-85
2022/01/08 04:23:23;;;;;;;;;;;3.90;93.70;;;;;;4994000;28;19922;-86
2022/01/08 04:25:50;;;;;;;;;;;3.90;93.70;;;;;;4982692;28;20200;-86
2022/01/08 04:28:17;;;;;;;;;;;3.90;93.80;;;;;;4989341;28;19918;-86
2022/01/08 04:30:44;;;;;;;;;;;3.90;93.80;;;;;;4990606;28;20006;-86
2022/01/08 04:33:11;;;;;;;;;;;3.90;93.80;;;;;;4999024;28;19940;-85
2022/01/08 04:35:38;;;;;;;;;;;3.90;93.90;;;;;;4976327;28;20013;-86
2022/01/08 04:38:05;;;;;;;;;;;3.90;93.90;;;;;;5002155;28;19920;-85
2022/01/08 04:40:32;;;;;;;;;;;3.90;93.90;;;;;;4983020;28;19928;-86
2022/01/08 04:43:00;;;;;;;;;;;3.90;93.90;;;;;;4983867;28;20386;-86
2022/01/08 04:45:30;;;;;;;;;;;3.90;94.00;;;;;;4997700;28;19922;-85
2022/01/08 04:47:58;;;;;;;;;;;3.90;94.00;;;;;;5000077;28;20004;-86
2022/01/08 04:50:25;;;;;;;;;;;3.90;94.00;;;;;;4991049;28;19920;-86
2022/01/08 04:52:52;;;;;;;;;;;3.90;94.00;;;;;;4983126;28;19917;-85
2022/01/08 04:55:19;;;;;;;;;;;3.90;94.00;;;;;;4989048;28;19928;-86
2022/01/08 04:57:46;;;;;;;;;;;3.90;94.00;;;;;;4984232;28;19922;-86
2022/01/08 05:00:14;;;;;;;;;;;3.90;94.00;;;;;;4987875;28;19909;-85
2022/01/08 05:02:41;;;;;;;;;;;3.90;94.00;;;;;;4993798;28;20381;-85
2022/01/08 05:05:08;;;;;;;;;;;3.90;93.90;;;;;;5000838;28;19917;-86
2022/01/08 05:07:35;;;;;;;;;;;3.90;93.90;;;;;;4977881;28;19924;-86
2022/01/08 05:10:02;;;;;;;;;;;3.90;93.90;;;;;;4990068;28;19921;-85
2022/01/08 05:12:30;;;;;;;;;;;3.90;93.90;;;;;;4995668;28;19918;-85
2022/01/08 05:14:57;;;;;;;;;;;3.90;94.00;;;;;;4966946;28;20200;-86
2022/01/08 05:17:29;;;;;;;;;;;3.90;94.00;;;;;;4989548;28;20278;-85
2022/01/08 05:19:59;;;;;;;;;;;3.90;94.00;;;;;;4992183;28;19943;-86
2022/01/08 05:22:29;;;;;;;;;;;3.90;94.10;;;;;;5000984;28;19921;-86
2022/01/08 05:24:56;;;;;;;;;;;3.90;94.10;;;;;;4971681;28;20019;-85
2022/01/08 05:27:23;;;;;;;;;;;4.00;94.10;;;;;;4986703;28;19921;-86
2022/01/08 05:29:51;;;;;;;;;;;4.00;94.20;;;;;;4997965;28;19921;-86
2022/01/08 05:32:18;;;;;;;;;;;4.00;94.20;;;;;;4988160;28;19914;-85
2022/01/08 05:34:49;;;;;;;;;;;4.10;94.20;;;;;;4989022;28;20138;-85
2022/01/08 05:37:17;;;;;;;;;;;4.10;94.20;;;;;;4990440;28;19928;-86
2022/01/08 05:39:44;;;;;;;;;;;4.10;94.20;;;;;;4996219;28;20022;-85
2022/01/08 05:42:11;;;;;;;;;;;4.10;94.20;;;;;;5002322;28;20375;-86
2022/01/08 05:44:37;;;;;;;;;;;4.10;94.30;;;;;;4991718;28;20486;-85
2022/01/08 05:47:05;;;;;;;;;;;4.10;94.30;;;;;;4985114;28;19921;-85
2022/01/08 05:49:31;;;;;;;;;;;4.20;94.30;;;;;;4992899;28;19914;-85
2022/01/08 05:51:58;;;;;;;;;;;4.20;94.30;;;;;;4968704;28;19936;-88
2022/01/08 05:54:25;;;;;;;;;;;4.20;94.30;;;;;;4991244;28;19921;-85
2022/01/08 05:56:52;;;;;;;;;;;4.20;94.30;;;;;;4973512;28;20295;-86
2022/01/08 05:59:21;;;;;;;;;;;4.20;94.30;;;;;;4997768;28;19914;-85
2022/01/08 06:01:48;;;;;;;;;;;4.20;94.30;;;;;;4982081;28;20104;-85
2022/01/08 06:04:15;;;;;;;;;;;4.20;94.30;;;;;;4982436;28;20432;-87
2022/01/08 06:06:43;;;;;;;;;;;4.20;94.20;;;;;;4994978;28;19936;-88
2022/01/08 06:09:10;;;;;;;;;;;4.20;94.20;;;;;;4981435;28;19921;-88
2022/01/08 06:11:37;;;;;;;;;;;4.20;94.20;;;;;;4976744;28;22136;-88
2022/01/08 06:14:04;;;;;;;;;;;4.20;94.20;;;;;;4983357;28;20290;-85
2022/01/08 06:16:34;;;;;;;;;;;4.10;94.20;;;;;;4979633;28;19921;-88
2022/01/08 06:19:02;;;;;;;;;;;4.20;94.20;;;;;;5015871;28;19920;-86
2022/01/08 06:21:29;;;;;;;;;;;4.10;94.10;;;;;;4984667;28;20816;-86
2022/01/08 06:23:56;;;;;;;;;;;4.20;94.20;;;;;;4983735;28;19923;-86
2022/01/08 06:26:23;;;;;;;;;;;4.20;94.30;;;;;;4978571;28;19921;-88
2022/01/08 06:28:51;;;;;;;;;;;4.20;94.30;;;;;;4973133;28;19926;-88
2022/01/08 06:31:19;;;;;;;;;;;4.20;94.30;;;;;;4986250;28;19920;-88
2022/01/08 06:33:46;;;;;;;;;;;4.10;94.20;;;;;;4987590;28;19913;-88
2022/01/08 06:36:13;;;;;;;;;;;4.10;94.20;;;;;;4991225;28;19924;-86
2022/01/08 06:38:40;;;;;;;;;;;4.10;94.20;;;;;;4972856;28;20391;-88
2022/01/08 06:41:07;;;;;;;;;;;4.10;94.20;;;;;;4993999;28;19920;-88
2022/01/08 06:43:34;;;;;;;;;;;4.10;94.20;;;;;;4969316;28;19914;-88
2022/01/08 06:46:01;;;;;;;;;;;4.10;94.20;;;;;;4989094;28;19918;-86
2022/01/08 06:48:28;;;;;;;;;;;4.10;94.20;;;;;;4980666;28;19925;-85
2022/01/08 06:50:55;;;;;;;;;;;4.10;94.20;;;;;;4993780;28;19920;-85
2022/01/08 06:53:22;;;;;;;;;;;4.10;94.30;;;;;;4992673;28;19924;-85
2022/01/08 06:55:48;;;;;;;;;;;4.10;94.30;;;;;;4980962;28;21920;-86
2022/01/08 06:58:16;;;;;;;;;;;4.20;94.40;;;;;;4983970;28;20390;-85
2022/01/08 07:00:42;;;;;;;;;;;4.20;94.40;;;;;;4987042;28;19914;-85
2022/01/08 07:03:11;;;;;;;;;;;4.20;94.40;;;;;;4989644;28;19925;-85
2022/01/08 07:05:38;;;;;;;;;;;4.20;94.40;;;;;;4981622;28;20398;-86
2022/01/08 07:08:05;;;;;;;;;;;4.20;94.50;;;;;;4999078;28;19921;-86
2022/01/08 07:10:32;;;;;;;;;;;4.30;94.50;;;;;;4978524;28;19914;-85
2022/01/08 07:12:59;;;;;;;;;;;4.30;94.50;;;;;;4990980;28;19919;-86
2022/01/08 07:15:26;;;;;;;;;;;4.30;94.50;;;;;;4980535;28;19917;-86
2022/01/08 07:17:53;;;;;;;;;;;4.30;94.50;;;;;;4993920;28;19914;-85
2022/01/08 07:20:19;;;;;;;;;;;4.40;94.60;;;;;;4988965;28;19922;-85
2022/01/08 07:22:46;;;;;;;;;;;4.40;94.70;;;;;;5008036;28;20282;-85
2022/01/08 07:25:13;;;;;;;;;;;4.40;94.70;;;;;;4977942;28;20011;-85
2022/01/08 07:27:40;;;;;;;;;;;4.40;94.70;;;;;;4982971;28;20110;-86
2022/01/08 07:30:08;;;;;;;;;;;4.40;94.70;;;;;;4981435;28;19914;-85
2022/01/08 07:32:46;;;;;;;;;;;4.40;94.70;;;;;;4989906;28;20110;-86
2022/01/08 07:35:14;;;;;;;;;;;4.50;94.60;;;;;;4981479;28;19924;-85
2022/01/08 07:37:42;;;;;;;;;;;4.50;94.60;;;;;;4984559;28;20315;-85
2022/01/08 07:40:09;;;;;;;;;;;4.50;94.90;;;;;;4993708;28;19914;-86
2022/01/08 07:42:36;;;;;;;;;;;4.50;94.60;;;;;;4978503;28;19922;-85
2022/01/08 07:45:04;;;;;;;;;;;4.50;94.60;;;;;;4989690;28;19928;-86
2022/01/08 07:47:31;;;;;;;;;;;4.60;94.60;;;;;;4995153;28;19936;-86
2022/01/08 07:49:57;;;;;;;;;;;4.60;94.70;;;;;;4980745;28;19920;-86
2022/01/08 07:52:24;;;;;;;;;;;4.60;94.70;;;;;;4987319;28;20293;-85
2022/01/08 07:54:51;;;;;;;;;;;4.60;94.70;;;;;;4991630;28;19918;-86
2022/01/08 07:57:18;;;;;;;;;;;4.60;94.70;;;;;;4983178;28;19936;-86
2022/01/08 07:59:45;;;;;;;;;;;4.70;94.90;;;;;;5005148;28;20134;-86
2022/01/08 08:02:12;;;;;;;;;;;4.70;94.70;;;;;;4979802;28;19920;-86
2022/01/08 08:04:38;;;;;;;;;;;4.70;94.80;;;;;;4979406;28;20174;-85
2022/01/08 08:07:05;;;;;;;;;;;4.80;94.80;;;;;;4981100;28;19913;-86
2022/01/08 08:09:32;;;;;;;;;;;4.80;94.90;;;;;;4975390;28;19925;-86
2022/01/08 08:11:59;;;;;;;;;;;4.80;94.80;;;;;;4991838;28;19917;-86
2022/01/08 08:14:26;;;;;;;;;;;4.80;94.90;;;;;;4976528;28;19918;-87
2022/01/08 08:16:53;;;;;;;;;;;4.80;94.90;;;;;;4990537;28;20413;-86
2022/01/08 08:19:19;;;;;;;;;;;4.90;94.90;;;;;;4976066;28;19914;-86
2022/01/08 08:21:46;;;;;;;;;;;4.90;95.00;;;;;;4981181;28;20108;-86
2022/01/08 08:24:14;;;;;;;;;;;4.90;94.90;;;;;;4983135;28;19914;-86
2022/01/08 08:26:41;;;;;;;;;;;4.90;95.00;;;;;;4990139;28;20018;-86
2022/01/08 08:29:08;;;;;;;;;;;5.00;95.00;;;;;;4984167;28;19922;-86
2022/01/08 08:31:35;;;;;;;;;;;5.00;95.10;;;;;;4992594;28;20232;-86
2022/01/08 08:34:01;;;;;;;;;;;5.00;95.00;;;;;;4976731;28;20285;-85
2022/01/08 08:36:28;;;;;;;;;;;5.10;95.10;;;;;;4973660;28;19922;-86
2022/01/08 08:38:55;;;;;;;;;;;5.10;95.00;;;;;;4978612;28;20037;-85
2022/01/08 08:41:22;;;;;;;;;;;5.10;95.00;;;;;;4987594;28;19931;-85
2022/01/08 08:43:49;;;;;;;;;;;5.10;95.00;;;;;;4991467;28;19928;-86
2022/01/08 08:46:16;;;;;;;;;;;5.10;95.00;;;;;;4980012;28;19924;-86
2022/01/08 08:48:44;;;;;;;;;;;5.20;95.00;;;;;;4977201;28;20357;-86
2022/01/08 08:51:11;;;;;;;;;;;5.10;95.00;;;;;;4991886;28;19923;-86
2022/01/08 08:53:38;;;;;;;;;;;5.20;95.00;;;;;;4981382;28;20325;-85
2022/01/08 08:56:05;;;;;;;;;;;5.20;95.10;;;;;;4991091;28;20272;-86
2022/01/08 08:58:32;;;;;;;;;;;5.20;94.90;;;;;;4995172;28;20453;-86
2022/01/08 09:00:59;;;;;;;;;;;5.20;95.00;;;;;;4968943;28;19922;-87
2022/01/08 09:03:26;;;;;;;;;;;5.30;95.00;;;;;;4995944;28;20423;-86
2022/01/08 09:05:53;;;;;;;;;;;5.30;95.00;;;;;;4986786;28;19924;-86
2022/01/08 09:08:20;;;;;;;;;;;5.40;95.10;;;;;;4989059;28;19917;-86
2022/01/08 09:10:47;;;;;;;;;;;5.50;95.10;;;;;;5006766;28;20412;-86
2022/01/08 09:13:13;;;;;;;;;;;5.50;95.20;;;;;;4991831;28;19921;-85
2022/01/08 09:15:42;;;;;;;;;;;5.50;95.20;;;;;;4993918;28;20466;-85
2022/01/08 09:18:09;;;;;;;;;;;5.60;95.10;;;;;;4973744;28;19917;-87
2022/01/08 09:20:37;;;;;;;;;;;5.70;95.30;;;;;;4978670;28;19913;-85
2022/01/08 09:23:04;;;;;;;;;;;5.70;95.30;;;;;;4993884;28;20481;-86
2022/01/08 09:25:31;;;;;;;;;;;5.70;94.80;;;;;;5000852;28;20405;-86
2022/01/08 09:27:58;;;;;;;;;;;5.80;95.00;;;;;;4977687;28;20030;-85
2022/01/08 09:30:26;;;;;;;;;;;5.80;94.70;;;;;;4989564;28;19917;-86
2022/01/08 09:32:53;;;;;;;;;;;5.90;94.90;;;;;;4980408;28;19936;-86
2022/01/08 09:35:20;;;;;;;;;;;5.90;94.80;;;;;;4981466;28;20253;-86
2022/01/08 09:37:47;;;;;;;;;;;5.90;94.70;;;;;;4978885;28;19918;-86
2022/01/08 09:40:15;;;;;;;;;;;6.00;94.70;;;;;;4981979;28;19914;-86
2022/01/08 09:42:42;;;;;;;;;;;6.00;95.10;;;;;;4979043;28;19928;-86
2022/01/08 09:45:10;;;;;;;;;;;6.00;95.40;;;;;;4982883;28;20219;-86
2022/01/08 09:47:37;;;;;;;;;;;6.10;95.10;;;;;;4988607;28;19920;-85
2022/01/08 09:50:04;;;;;;;;;;;6.10;94.80;;;;;;4991146;28;20237;-85
2022/01/08 09:52:32;;;;;;;;;;;6.10;95.30;;;;;;4972863;28;19920;-86
2022/01/08 09:54:59;;;;;;;;;;;6.20;95.40;;;;;;4991546;28;19914;-87
2022/01/08 09:57:26;;;;;;;;;;;6.20;95.30;;;;;;4988982;28;19922;-85
2022/01/08 09:59:53;;;;;;;;;;;6.20;95.10;;;;;;4994113;28;19914;-86
2022/01/08 10:02:21;;;;;;;;;;;6.20;94.70;;;;;;4980499;28;19940;-85
2022/01/08 10:04:49;;;;;;;;;;;6.30;95.30;;;;;;4991796;28;19920;-86
2022/01/08 10:07:19;;;;;;;;;;;6.30;95.40;;;;;;4965530;28;20003;-85
2022/01/08 10:10:01;;;;;;;;;;;6.30;95.40;;;;;;4994002;28;19924;-86
2022/01/08 10:12:48;;;;;;;;;;;6.40;95.60;;;;;;4998942;28;19918;-86
2022/01/08 10:18:08;;;;;;;;;;;6.40;95.20;;;;;;4985172;28;20109;-86
2022/01/08 10:20:37;;;;;;;;;;;6.40;95.30;;;;;;4994363;28;19921;-86
2022/01/08 10:23:16;;;;;;;;;;;6.40;95.20;;;;;;4980854;28;19914;-86
2022/01/08 10:26:03;;;;;;;;;;;6.50;95.30;;;;;;4995342;28;19928;-88
2022/01/08 10:28:36;;;;;;;;;;;6.50;95.30;;;;;;4993980;28;20150;-88
2022/01/08 10:31:17;;;;;;;;;;;6.50;95.40;;;;;;4991629;28;19918;-88
2022/01/08 10:33:45;;;;;;;;;;;6.60;95.60;;;;;;5002068;28;19943;-88
2022/01/08 10:36:13;;;;;;;;;;;6.60;95.70;;;;;;4995357;28;20140;-88
2022/01/08 10:38:40;;;;;;;;;;;6.60;95.50;;;;;;4984360;28;19914;-87
2022/01/08 10:41:12;;;;;;;;;;;6.60;94.90;;;;;;4983019;28;19914;-85
2022/01/08 10:43:39;;;;;;;;;;;6.60;94.90;;;;;;4987290;28;20309;-86
2022/01/08 10:46:10;;;;;;;;;;;6.60;95.00;;;;;;4980081;28;20416;-86
2022/01/08 10:48:37;;;;;;;;;;;6.60;94.90;;;;;;4975871;28;19924;-85
2022/01/08 10:51:11;;;;;;;;;;;6.60;95.30;;;;;;4993128;28;20434;-85
2022/01/08 10:53:54;;;;;;;;;;;6.60;95.00;;;;;;4964862;28;20260;-86
2022/01/08 10:56:25;;;;;;;;;;;6.60;94.70;;;;;;4997652;28;19928;-86
2022/01/08 10:58:56;;;;;;;;;;;6.60;95.00;;;;;;4993245;28;20544;-87
2022/01/08 11:01:35;;;;;;;;;;;6.60;94.70;;;;;;4985925;28;19913;-86
2022/01/08 11:04:03;;;;;;;;;;;6.60;94.90;;;;;;4983171;28;20299;-85
2022/01/08 11:06:30;;;;;;;;;;;6.70;95.00;;;;;;4988406;28;19943;-88
2022/01/08 11:09:01;;;;;;;;;;;6.70;95.40;;;;;;4976187;28;19922;-86
2022/01/08 11:11:30;;;;;;;;;;;6.70;95.20;;;;;;4995046;28;19928;-86
2022/01/08 11:14:04;;;;;;;;;;;6.70;94.60;;;;;;4983893;28;20087;-86
2022/01/08 11:16:31;;;;;;;;;;;6.70;94.40;;;;;;4995255;28;19920;-86
2022/01/08 11:19:04;;;;;;;;;;;6.80;95.00;;;;;;4995732;28;20003;-86
2022/01/08 11:21:32;;;;;;;;;;;6.80;95.20;;;;;;5007307;28;19939;-86
2022/01/08 11:24:00;;;;;;;;;;;6.80;95.40;;;;;;4995834;28;19918;-86
2022/01/08 11:26:27;;;;;;;;;;;6.80;95.60;;;;;;4982327;28;19918;-87
2022/01/08 11:28:58;;;;;;;;;;;6.80;95.60;;;;;;4993559;28;20387;-86
2022/01/08 11:31:28;;;;;;;;;;;6.80;95.60;;;;;;4986336;28;19940;-85
2022/01/08 11:33:59;;;;;;;;;;;6.80;95.60;;;;;;4979123;28;20129;-86
2022/01/08 11:36:26;;;;;;;;;;;6.90;95.60;;;;;;4989471;28;20160;-86
2022/01/08 11:38:55;;;;;;;;;;;6.90;95.00;;;;;;4985882;28;19940;-86
2022/01/08 11:41:22;;;;;;;;;;;6.90;95.40;;;;;;4982997;28;19913;-86
2022/01/08 11:43:50;;;;;;;;;;;6.90;95.50;;;;;;4982384;28;20099;-86
2022/01/08 11:46:17;;;;;;;;;;;6.80;95.00;;;;;;4991740;28;19913;-87
2022/01/08 11:48:45;;;;;;;;;;;6.80;95.10;;;;;;4978022;28;20391;-87
2022/01/08 11:51:15;;;;;;;;;;;6.80;95.20;;;;;;4989696;28;19928;-87
2022/01/08 11:53:47;;;;;;;;;;;6.70;95.20;;;;;;4993612;28;20359;-88
2022/01/08 11:56:24;;;;;;;;;;;6.70;95.30;;;;;;4958667;28;19920;-86
2022/01/08 11:59:00;;;;;;;;;;;6.70;95.40;;;;;;4981122;28;19913;-86
2022/01/08 12:01:27;;;;;;;;;;;6.70;95.40;;;;;;4983973;28;19917;-86
2022/01/08 12:03:55;;;;;;;;;;;6.60;95.50;;;;;;4994509;28;20294;-86
2022/01/08 12:06:23;;;;;;;;;;;6.60;95.30;;;;;;4990909;28;19914;-87
2022/01/08 12:08:57;;;;;;;;;;;6.60;95.20;;;;;;4993205;28;19920;-88
2022/01/08 12:11:24;;;;;;;;;;;6.60;95.50;;;;;;4989597;28;19918;-87
2022/01/08 12:13:52;;;;;;;;;;;6.50;95.50;;;;;;4995283;28;19913;-86
2022/01/08 12:16:35;;;;;;;;;;;6.60;95.50;;;;;;4979784;28;19920;-86
2022/01/08 12:19:03;;;;;;;;;;;6.50;95.60;;;;;;4975675;28;20370;-87
2022/01/08 12:21:40;;;;;;;;;;;6.50;95.60;;;;;;4981868;28;19914;-86
2022/01/08 12:24:25;;;;;;;;;;;6.50;95.50;;;;;;4975993;28;20278;-86
2022/01/08 12:27:02;;;;;;;;;;;6.50;95.50;;;;;;4988022;28;19913;-86
2022/01/08 12:29:40;;;;;;;;;;;6.50;95.40;;;;;;4987123;28;19924;-86
2022/01/08 12:32:26;;;;;;;;;;;6.50;95.50;;;;;;5017477;28;19917;-87
2022/01/08 12:35:01;;;;;;;;;;;6.50;95.50;;;;;;4985904;28;20121;-87
2022/01/08 12:37:35;;;;;;;;;;;6.50;95.40;;;;;;4993298;28;19944;-87
2022/01/08 12:40:03;;;;;;;;;;;6.50;95.60;;;;;;4989740;28;20231;-86
2022/01/08 12:42:29;;;;;;;;;;;6.50;95.70;;;;;;4983849;28;19944;-87
2022/01/08 12:45:02;;;;;;;;;;;6.50;95.70;;;;;;4999218;28;20320;-88
2022/01/08 12:47:39;;;;;;;;;;;6.50;95.80;;;;;;5007042;28;20193;-87
2022/01/08 12:50:23;;;;;;;;;;;6.50;95.90;;;;;;4987341;28;19928;-86
2022/01/08 12:53:06;;;;;;;;;;;6.50;95.70;;;;;;4992364;28;20673;-87
2022/01/08 12:55:35;;;;;;;;;;;6.50;95.80;;;;;;4970444;28;19996;-86
2022/01/08 12:58:16;;;;;;;;;;;6.50;95.80;;;;;;4978868;28;19920;-87
2022/01/08 13:00:56;;;;;;;;;;;6.50;95.90;;;;;;4982573;28;20257;-86
2022/01/08 13:03:24;;;;;;;;;;;6.50;95.90;;;;;;5000862;28;20301;-86
2022/01/08 13:05:51;;;;;;;;;;;6.50;96.00;;;;;;4970362;28;19928;-86
2022/01/08 13:08:25;;;;;;;;;;;6.50;95.90;;;;;;5007186;28;19935;-89
2022/01/08 13:10:56;;;;;;;;;;;6.60;96.00;;;;;;4974599;28;20209;-86
2022/01/08 13:13:24;;;;;;;;;;;6.60;96.00;;;;;;4997281;28;19918;-87
2022/01/08 13:15:52;;;;;;;;;;;6.60;96.00;;;;;;4991667;28;19914;-86
2022/01/08 13:18:19;;;;;;;;;;;6.60;96.10;;;;;;4980813;28;19917;-87
2022/01/08 13:20:46;;;;;;;;;;;6.60;96.10;;;;;;4988018;28;20121;-87
2022/01/08 13:23:13;;;;;;;;;;;6.60;96.10;;;;;;4980746;28;19928;-87
2022/01/08 13:25:40;;;;;;;;;;;6.60;96.20;;;;;;4980631;28;19914;-87
2022/01/08 13:28:07;;;;;;;;;;;6.60;96.10;;;;;;4990704;28;19917;-87
2022/01/08 13:30:36;;;;;;;;;;;6.60;96.20;;;;;;4982087;28;20367;-87
2022/01/08 13:33:04;;;;;;;;;;;6.60;96.20;;;;;;4986550;28;20448;-86
2022/01/08 13:35:31;;;;;;;;;;;6.70;96.30;;;;;;4991856;28;20302;-87
2022/01/08 13:37:58;;;;;;;;;;;6.70;96.40;;;;;;4982987;28;19952;-86
2022/01/08 13:40:25;;;;;;;;;;;6.70;96.40;;;;;;4990723;28;19910;-85
2022/01/08 13:42:53;;;;;;;;;;;6.70;96.30;;;;;;4978187;28;19918;-88
2022/01/08 13:45:21;;;;;;;;;;;6.70;96.50;;;;;;4976772;28;19913;-87
2022/01/08 13:47:48;;;;;;;;;;;6.80;96.50;;;;;;4988192;28;19921;-87
2022/01/08 13:50:27;;;;;;;;;;;6.80;96.50;;;;;;4985998;28;19917;-87
2022/01/08 13:52:59;;;;;;;;;;;6.80;96.50;;;;;;4978935;28;20129;-86
2022/01/08 13:55:43;;;;;;;;;;;6.80;96.50;;;;;;4996827;28;19913;-86
2022/01/08 13:58:14;;;;;;;;;;;6.90;96.50;;;;;;4998256;28;19914;-88
2022/01/08 14:00:47;;;;;;;;;;;6.90;96.60;;;;;;4971832;28;19918;-86
2022/01/08 14:03:20;;;;;;;;;;;6.90;96.60;;;;;;5012941;28;20413;-87
2022/01/08 14:05:50;;;;;;;;;;;6.90;96.50;;;;;;4989379;28;19914;-87
2022/01/08 14:08:17;;;;;;;;;;;7.00;96.60;;;;;;4984062;28;21046;-86
2022/01/08 14:10:47;;;;;;;;;;;7.00;96.50;;;;;;4988120;28;19920;-86
2022/01/08 14:13:17;;;;;;;;;;;7.00;96.50;;;;;;4980504;28;19925;-89
2022/01/08 14:15:45;;;;;;;;;;;7.00;96.60;;;;;;4978754;28;19922;-87
2022/01/08 14:18:19;;;;;;;;;;;7.10;96.70;;;;;;4991944;28;20363;-86
2022/01/08 14:20:46;;;;;;;;;;;7.10;96.70;;;;;;4986377;28;19936;-86
2022/01/08 14:23:14;;;;;;;;;;;7.20;96.70;;;;;;4980187;28;20867;-86
2022/01/08 14:25:42;;;;;;;;;;;7.20;96.70;;;;;;4964060;28;19922;-86
2022/01/08 14:28:15;;;;;;;;;;;7.20;96.70;;;;;;4983642;28;20275;-87
2022/01/08 14:30:42;;;;;;;;;;;7.20;96.80;;;;;;4975726;28;20642;-86
2022/01/08 14:33:08;;;;;;;;;;;7.30;96.70;;;;;;4988909;28;19936;-87
2022/01/08 14:35:35;;;;;;;;;;;7.30;96.80;;;;;;4980841;28;20306;-87
2022/01/08 14:38:03;;;;;;;;;;;7.30;96.80;;;;;;4987043;28;20007;-88
2022/01/08 14:40:34;;;;;;;;;;;7.30;96.80;;;;;;4966664;28;19918;-87
2022/01/08 14:43:05;;;;;;;;;;;7.40;96.80;;;;;;4991884;28;20153;-87
2022/01/08 14:45:34;;;;;;;;;;;7.40;96.80;;;;;;4979563;28;19917;-85
2022/01/08 14:48:03;;;;;;;;;;;7.40;96.80;;;;;;4983212;28;20302;-86
2022/01/08 14:50:30;;;;;;;;;;;7.40;96.80;;;;;;4990038;28;19920;-86
2022/01/08 14:53:00;;;;;;;;;;;7.50;96.80;;;;;;4984171;28;20014;-87
2022/01/08 14:55:34;;;;;;;;;;;7.50;96.80;;;;;;4985424;28;19926;-89
2022/01/08 14:58:02;;;;;;;;;;;7.50;96.80;;;;;;4984156;28;19914;-87
2022/01/08 15:00:30;;;;;;;;;;;7.50;96.80;;;;;;4985060;28;19913;-85
2022/01/08 15:02:57;;;;;;;;;;;7.50;96.80;;;;;;4975488;28;20101;-87
2022/01/08 15:05:24;;;;;;;;;;;7.60;96.80;;;;;;4995173;28;19940;-86